sensor_id;sensor_type;location;lat;lon;timestamp;pressure;altitude;pressure_sealevel;temperature;humidity
13387;BME280;6763;48.524;9.044;2022-11-15T00:00:52;97616.47;;;9.78;57.87
13387;BME280;6763;48.524;9.044;2022-11-15T00:03:23;97607.13;;;9.71;58.09
13387;BME280;6763;48.524;9.044;2022-11-15T00:05:49;97603.81;;;9.63;58.22
13387;BME280;6763;48.524;9.044;2022-11-15T00:08:14;97597.91;;;9.56;57.90
13387;BME280;6763;48.524;9.044;2022-11-15T00:10:40;97591.13;;;9.51;57.52
13387;BME280;6763;48.524;9.044;2022-11-15T00:13:10;97595.56;;;9.44;57.89
13387;BME280;6763;48.524;9.044;2022-11-15T00:15:40;97597.38;;;9.38;57.28
13387;BME280;6763;48.524;9.044;2022-11-15T00:18:06;97588.00;;;9.32;57.27
13387;BME280;6763;48.524;9.044;2022-11-15T00:20:35;97592.41;;;9.27;57.42
13387;BME280;6763;48.524;9.044;2022-11-15T00:23:03;97594.16;;;9.23;57.45
13387;BME280;6763;48.524;9.044;2022-11-15T00:25:28;97595.97;;;9.20;57.51
13387;BME280;6763;48.524;9.044;2022-11-15T00:27:58;97594.34;;;9.14;57.80
13387;BME280;6763;48.524;9.044;2022-11-15T00:30:23;97586.66;;;9.10;57.14
13387;BME280;6763;48.524;9.044;2022-11-15T00:32:49;97588.44;;;9.06;57.40
13387;BME280;6763;48.524;9.044;2022-11-15T00:35:15;97589.34;;;9.04;57.36
13387;BME280;6763;48.524;9.044;2022-11-15T00:37:40;97587.69;;;9.00;57.63
13387;BME280;6763;48.524;9.044;2022-11-15T00:40:06;97577.41;;;8.97;58.10
13387;BME280;6763;48.524;9.044;2022-11-15T00:42:31;97582.56;;;8.97;58.00
13387;BME280;6763;48.524;9.044;2022-11-15T00:44:56;97583.47;;;8.94;58.02
13387;BME280;6763;48.524;9.044;2022-11-15T00:47:22;97576.63;;;8.90;58.03
13387;BME280;6763;48.524;9.044;2022-11-15T00:49:47;97579.25;;;8.87;58.18
13387;BME280;6763;48.524;9.044;2022-11-15T00:52:13;97578.47;;;8.82;58.06
13387;BME280;6763;48.524;9.044;2022-11-15T00:54:38;97578.56;;;8.78;57.77
13387;BME280;6763;48.524;9.044;2022-11-15T00:57:03;97574.34;;;8.72;57.66
13387;BME280;6763;48.524;9.044;2022-11-15T00:59:29;97573.53;;;8.68;58.22
13387;BME280;6763;48.524;9.044;2022-11-15T01:01:54;97578.75;;;8.65;58.17
13387;BME280;6763;48.524;9.044;2022-11-15T01:04:22;97577.88;;;8.65;58.17
13387;BME280;6763;48.524;9.044;2022-11-15T01:06:48;97571.88;;;8.66;58.41
13387;BME280;6763;48.524;9.044;2022-11-15T01:09:13;97570.09;;;8.66;58.30
13387;BME280;6763;48.524;9.044;2022-11-15T01:11:39;97576.13;;;8.67;58.45
13387;BME280;6763;48.524;9.044;2022-11-15T01:14:04;97562.41;;;8.65;57.96
13387;BME280;6763;48.524;9.044;2022-11-15T01:16:30;97564.94;;;8.68;58.03
13387;BME280;6763;48.524;9.044;2022-11-15T01:18:55;97564.94;;;8.68;58.09
13387;BME280;6763;48.524;9.044;2022-11-15T01:21:20;97568.38;;;8.68;58.20
13387;BME280;6763;48.524;9.044;2022-11-15T01:23:46;97566.66;;;8.67;58.21
13387;BME280;6763;48.524;9.044;2022-11-15T01:26:14;97573.47;;;8.71;58.50
13387;BME280;6763;48.524;9.044;2022-11-15T01:28:41;97557.94;;;8.74;58.49
13387;BME280;6763;48.524;9.044;2022-11-15T01:31:12;97557.91;;;8.78;58.99
13387;BME280;6763;48.524;9.044;2022-11-15T01:33:38;97551.03;;;8.78;58.20
13387;BME280;6763;48.524;9.044;2022-11-15T01:36:10;97554.44;;;8.82;58.54
13387;BME280;6763;48.524;9.044;2022-11-15T01:38:35;97548.38;;;8.83;58.60
13387;BME280;6763;48.524;9.044;2022-11-15T01:41:01;97549.22;;;8.83;58.75
13387;BME280;6763;48.524;9.044;2022-11-15T01:43:32;97538.88;;;8.85;58.32
13387;BME280;6763;48.524;9.044;2022-11-15T01:46:06;97545.69;;;8.89;58.59
13387;BME280;6763;48.524;9.044;2022-11-15T01:48:34;97540.50;;;8.90;58.72
13387;BME280;6763;48.524;9.044;2022-11-15T01:51:04;97539.59;;;8.93;58.97
13387;BME280;6763;48.524;9.044;2022-11-15T01:53:32;97536.13;;;8.95;58.39
13387;BME280;6763;48.524;9.044;2022-11-15T01:56:02;97527.50;;;8.96;58.66
13387;BME280;6763;48.524;9.044;2022-11-15T01:58:29;97528.38;;;8.95;58.66
13387;BME280;6763;48.524;9.044;2022-11-15T02:00:54;97520.66;;;8.94;58.76
13387;BME280;6763;48.524;9.044;2022-11-15T02:03:22;97516.41;;;8.90;58.67
13387;BME280;6763;48.524;9.044;2022-11-15T02:05:52;97513.84;;;8.90;58.20
13387;BME280;6763;48.524;9.044;2022-11-15T02:08:18;97520.75;;;8.89;58.66
13387;BME280;6763;48.524;9.044;2022-11-15T02:10:49;97521.66;;;8.85;58.39
13387;BME280;6763;48.524;9.044;2022-11-15T02:13:16;97520.84;;;8.83;58.38
13387;BME280;6763;48.524;9.044;2022-11-15T02:18:53;97510.66;;;8.76;58.03
13387;BME280;6763;48.524;9.044;2022-11-15T02:21:31;97508.91;;;8.76;57.76
13387;BME280;6763;48.524;9.044;2022-11-15T02:24:35;97495.22;;;8.72;57.71
13387;BME280;6763;48.524;9.044;2022-11-15T02:27:18;97500.41;;;8.69;57.74
13387;BME280;6763;48.524;9.044;2022-11-15T02:32:47;97498.72;;;8.67;57.91
13387;BME280;6763;48.524;9.044;2022-11-15T02:35:34;97499.63;;;8.66;58.32
13387;BME280;6763;48.524;9.044;2022-11-15T02:38:29;97491.94;;;8.61;57.53
13387;BME280;6763;48.524;9.044;2022-11-15T02:43:54;97492.91;;;8.56;58.16
13387;BME280;6763;48.524;9.044;2022-11-15T02:49:13;97499.91;;;8.46;58.26
13387;BME280;6763;48.524;9.044;2022-11-15T02:51:41;97489.59;;;8.48;58.15
13387;BME280;6763;48.524;9.044;2022-11-15T02:54:12;97476.75;;;8.45;58.25
13387;BME280;6763;48.524;9.044;2022-11-15T02:56:39;97479.28;;;8.46;58.39
13387;BME280;6763;48.524;9.044;2022-11-15T02:59:36;97483.53;;;8.50;58.88
13387;BME280;6763;48.524;9.044;2022-11-15T03:02:46;97475.81;;;8.50;58.43
13387;BME280;6763;48.524;9.044;2022-11-15T03:05:43;97476.56;;;8.55;58.63
13387;BME280;6763;48.524;9.044;2022-11-15T03:08:17;97459.31;;;8.59;58.73
13387;BME280;6763;48.524;9.044;2022-11-15T03:13:42;97461.72;;;8.69;58.94
13387;BME280;6763;48.524;9.044;2022-11-15T03:19:33;97455.59;;;8.75;59.35
13387;BME280;6763;48.524;9.044;2022-11-15T03:22:03;97453.84;;;8.79;58.85
13387;BME280;6763;48.524;9.044;2022-11-15T03:24:31;97450.31;;;8.84;58.86
13387;BME280;6763;48.524;9.044;2022-11-15T03:27:00;97446.78;;;8.88;59.27
13387;BME280;6763;48.524;9.044;2022-11-15T03:29:31;97450.09;;;8.96;59.04
13387;BME280;6763;48.524;9.044;2022-11-15T03:32:08;97452.53;;;9.04;59.42
13387;BME280;6763;48.524;9.044;2022-11-15T03:37:03;97447.25;;;9.10;58.78
13387;BME280;6763;48.524;9.044;2022-11-15T03:39:30;97442.00;;;9.14;59.17
13387;BME280;6763;48.524;9.044;2022-11-15T03:42:21;97442.88;;;9.15;58.52
13387;BME280;6763;48.524;9.044;2022-11-15T03:44:55;97437.78;;;9.10;58.37
13387;BME280;6763;48.524;9.044;2022-11-15T03:49:55;97427.75;;;8.94;58.38
13387;BME280;6763;48.524;9.044;2022-11-15T03:52:22;97433.91;;;8.85;58.18
13387;BME280;6763;48.524;9.044;2022-11-15T03:54:54;97428.88;;;8.79;58.39
13387;BME280;6763;48.524;9.044;2022-11-15T03:57:20;97428.16;;;8.71;58.28
13387;BME280;6763;48.524;9.044;2022-11-15T03:59:45;97434.22;;;8.68;58.77
13387;BME280;6763;48.524;9.044;2022-11-15T04:02:13;97434.28;;;8.65;58.71
13387;BME280;6763;48.524;9.044;2022-11-15T04:04:39;97425.66;;;8.66;58.42
13387;BME280;6763;48.524;9.044;2022-11-15T04:07:04;97424.78;;;8.67;59.01
13387;BME280;6763;48.524;9.044;2022-11-15T04:09:30;97424.72;;;8.70;59.03
13387;BME280;6763;48.524;9.044;2022-11-15T04:11:55;97409.16;;;8.75;58.65
13387;BME280;6763;48.524;9.044;2022-11-15T04:14:22;97417.66;;;8.82;59.37
13387;BME280;6763;48.524;9.044;2022-11-15T04:16:47;97415.84;;;8.87;58.97
13387;BME280;6763;48.524;9.044;2022-11-15T04:19:12;97415.72;;;8.94;59.33
13387;BME280;6763;48.524;9.044;2022-11-15T04:21:56;97425.97;;;8.97;59.04
13387;BME280;6763;48.524;9.044;2022-11-15T04:24:40;97423.31;;;9.00;58.73
13387;BME280;6763;48.524;9.044;2022-11-15T04:27:05;97423.31;;;9.02;58.82
13387;BME280;6763;48.524;9.044;2022-11-15T04:29:31;97418.09;;;9.05;58.72
13387;BME280;6763;48.524;9.044;2022-11-15T04:32:03;97416.28;;;9.08;59.11
13387;BME280;6763;48.524;9.044;2022-11-15T04:34:29;97409.41;;;9.10;58.92
13387;BME280;6763;48.524;9.044;2022-11-15T04:36:54;97409.31;;;9.13;59.33
13387;BME280;6763;48.524;9.044;2022-11-15T04:39:42;97405.81;;;9.16;58.64
13387;BME280;6763;48.524;9.044;2022-11-15T04:42:08;97406.69;;;9.16;59.28
13387;BME280;6763;48.524;9.044;2022-11-15T04:44:34;97405.84;;;9.14;58.64
13387;BME280;6763;48.524;9.044;2022-11-15T04:46:59;97408.59;;;9.07;58.25
13387;BME280;6763;48.524;9.044;2022-11-15T04:49:25;97407.00;;;9.00;58.35
13387;BME280;6763;48.524;9.044;2022-11-15T04:51:50;97406.28;;;8.92;58.83
13387;BME280;6763;48.524;9.044;2022-11-15T04:54:16;97406.34;;;8.87;58.79
13387;BME280;6763;48.524;9.044;2022-11-15T04:56:42;97396.97;;;8.83;58.39
13387;BME280;6763;48.524;9.044;2022-11-15T04:59:07;97398.69;;;8.83;58.57
13387;BME280;6763;48.524;9.044;2022-11-15T05:01:32;97402.19;;;8.82;58.80
13387;BME280;6763;48.524;9.044;2022-11-15T05:03:57;97394.44;;;8.82;58.95
13387;BME280;6763;48.524;9.044;2022-11-15T05:06:41;97396.06;;;8.86;59.07
13387;BME280;6763;48.524;9.044;2022-11-15T05:09:07;97396.78;;;8.94;59.41
13387;BME280;6763;48.524;9.044;2022-11-15T05:11:32;97394.09;;;9.00;59.06
13387;BME280;6763;48.524;9.044;2022-11-15T05:13:57;97400.03;;;9.05;59.26
13387;BME280;6763;48.524;9.044;2022-11-15T05:16:23;97393.97;;;9.06;58.84
13387;BME280;6763;48.524;9.044;2022-11-15T05:18:54;97393.91;;;9.09;58.67
13387;BME280;6763;48.524;9.044;2022-11-15T05:21:20;97388.75;;;9.09;59.18
13387;BME280;6763;48.524;9.044;2022-11-15T05:23:45;97380.19;;;9.05;58.82
13387;BME280;6763;48.524;9.044;2022-11-15T05:26:11;97385.41;;;9.04;58.78
13387;BME280;6763;48.524;9.044;2022-11-15T05:28:37;97381.19;;;9.00;58.87
13387;BME280;6763;48.524;9.044;2022-11-15T05:31:04;97378.63;;;8.98;58.63
13387;BME280;6763;48.524;9.044;2022-11-15T05:33:31;97375.19;;;8.98;58.51
13387;BME280;6763;48.524;9.044;2022-11-15T05:36:06;97380.31;;;9.01;58.70
13387;BME280;6763;48.524;9.044;2022-11-15T05:38:34;97377.72;;;9.02;58.76
13387;BME280;6763;48.524;9.044;2022-11-15T05:41:00;97372.47;;;9.05;58.42
13387;BME280;6763;48.524;9.044;2022-11-15T05:43:27;97359.50;;;9.08;58.44
13387;BME280;6763;48.524;9.044;2022-11-15T05:45:54;97364.72;;;9.07;58.71
13387;BME280;6763;48.524;9.044;2022-11-15T05:48:20;97363.84;;;9.08;58.32
13387;BME280;6763;48.524;9.044;2022-11-15T05:50:46;97366.41;;;9.08;58.49
13387;BME280;6763;48.524;9.044;2022-11-15T05:53:14;97360.41;;;9.07;58.81
13387;BME280;6763;48.524;9.044;2022-11-15T05:55:41;97371.63;;;9.05;58.43
13387;BME280;6763;48.524;9.044;2022-11-15T05:58:07;97368.19;;;9.04;58.73
13387;BME280;6763;48.524;9.044;2022-11-15T06:00:32;97363.03;;;9.04;58.93
13387;BME280;6763;48.524;9.044;2022-11-15T06:02:58;97366.47;;;9.03;59.20
13387;BME280;6763;48.524;9.044;2022-11-15T06:05:23;97367.34;;;9.04;58.50
13387;BME280;6763;48.524;9.044;2022-11-15T06:07:49;97365.63;;;9.03;58.54
13387;BME280;6763;48.524;9.044;2022-11-15T06:10:14;97358.78;;;9.02;58.89
13387;BME280;6763;48.524;9.044;2022-11-15T06:12:39;97360.56;;;8.98;58.91
13387;BME280;6763;48.524;9.044;2022-11-15T06:15:05;97367.44;;;8.99;58.84
13387;BME280;6763;48.524;9.044;2022-11-15T06:17:31;97375.19;;;8.98;58.52
13387;BME280;6763;48.524;9.044;2022-11-15T06:19:56;97370.03;;;8.98;58.60
13387;BME280;6763;48.524;9.044;2022-11-15T06:22:21;97377.75;;;8.99;58.72
13387;BME280;6763;48.524;9.044;2022-11-15T06:24:46;97374.28;;;9.02;59.09
13387;BME280;6763;48.524;9.044;2022-11-15T06:27:12;97372.47;;;9.05;59.46
13387;BME280;6763;48.524;9.044;2022-11-15T06:29:37;97374.94;;;9.11;59.31
13387;BME280;6763;48.524;9.044;2022-11-15T06:32:03;97373.91;;;9.20;59.67
13387;BME280;6763;48.524;9.044;2022-11-15T06:34:28;97378.88;;;9.29;59.72
13387;BME280;6763;48.524;9.044;2022-11-15T06:36:54;97380.44;;;9.38;59.97
13387;BME280;6763;48.524;9.044;2022-11-15T06:39:19;97374.25;;;9.45;59.46
13387;BME280;6763;48.524;9.044;2022-11-15T06:41:45;97378.44;;;9.52;59.57
13387;BME280;6763;48.524;9.044;2022-11-15T06:44:13;97380.00;;;9.57;59.95
13387;BME280;6763;48.524;9.044;2022-11-15T06:46:39;97386.78;;;9.63;59.47
13387;BME280;6763;48.524;9.044;2022-11-15T06:49:04;97381.50;;;9.69;59.22
13387;BME280;6763;48.524;9.044;2022-11-15T06:51:29;97383.09;;;9.74;59.63
13387;BME280;6763;48.524;9.044;2022-11-15T06:53:55;97376.09;;;9.79;59.53
13387;BME280;6763;48.524;9.044;2022-11-15T06:56:20;97367.31;;;9.86;59.69
13387;BME280;6763;48.524;9.044;2022-11-15T06:58:46;97366.28;;;9.93;59.79
13387;BME280;6763;48.524;9.044;2022-11-15T07:01:11;97372.97;;;10.02;59.83
13387;BME280;6763;48.524;9.044;2022-11-15T07:03:39;97373.66;;;10.10;59.71
13387;BME280;6763;48.524;9.044;2022-11-15T07:06:05;97383.09;;;10.13;59.55
13387;BME280;6763;48.524;9.044;2022-11-15T07:08:31;97383.91;;;10.15;58.84
13387;BME280;6763;48.524;9.044;2022-11-15T07:11:02;97390.75;;;10.17;58.83
13387;BME280;6763;48.524;9.044;2022-11-15T07:13:30;97386.44;;;10.18;58.87
13387;BME280;6763;48.524;9.044;2022-11-15T07:15:58;97380.41;;;10.17;59.09
13387;BME280;6763;48.524;9.044;2022-11-15T07:18:26;97374.38;;;10.18;59.25
13387;BME280;6763;48.524;9.044;2022-11-15T07:20:52;97375.16;;;10.22;59.42
13387;BME280;6763;48.524;9.044;2022-11-15T07:23:17;97381.06;;;10.27;59.45
13387;BME280;6763;48.524;9.044;2022-11-15T07:25:43;97371.47;;;10.30;58.98
13387;BME280;6763;48.524;9.044;2022-11-15T07:28:08;97374.84;;;10.34;59.29
13387;BME280;6763;48.524;9.044;2022-11-15T07:30:33;97370.47;;;10.36;59.07
13387;BME280;6763;48.524;9.044;2022-11-15T07:33:00;97369.53;;;10.40;59.41
13387;BME280;6763;48.524;9.044;2022-11-15T07:35:26;97366.78;;;10.46;59.34
13387;BME280;6763;48.524;9.044;2022-11-15T07:37:53;97365.66;;;10.56;59.78
13387;BME280;6763;48.524;9.044;2022-11-15T07:40:19;97355.03;;;10.67;59.53
13387;BME280;6763;48.524;9.044;2022-11-15T07:42:44;97361.72;;;10.75;59.43
13387;BME280;6763;48.524;9.044;2022-11-15T07:45:23;97355.41;;;10.85;59.16
13387;BME280;6763;48.524;9.044;2022-11-15T07:47:51;97362.00;;;10.97;59.25
13387;BME280;6763;48.524;9.044;2022-11-15T07:50:17;97367.72;;;11.08;59.12
13387;BME280;6763;48.524;9.044;2022-11-15T07:52:42;97364.03;;;11.16;58.83
13387;BME280;6763;48.524;9.044;2022-11-15T07:55:09;97360.44;;;11.22;58.94
13387;BME280;6763;48.524;9.044;2022-11-15T07:57:35;97361.94;;;11.29;58.74
13387;BME280;6763;48.524;9.044;2022-11-15T08:00:01;97357.47;;;11.36;59.08
13387;BME280;6763;48.524;9.044;2022-11-15T08:02:26;97351.19;;;11.43;59.05
13387;BME280;6763;48.524;9.044;2022-11-15T08:04:51;97350.97;;;11.50;58.79
13387;BME280;6763;48.524;9.044;2022-11-15T08:07:17;97349.97;;;11.54;58.49
13387;BME280;6763;48.524;9.044;2022-11-15T08:09:44;97351.69;;;11.55;58.61
13387;BME280;6763;48.524;9.044;2022-11-15T08:12:10;97347.38;;;11.56;58.00
13387;BME280;6763;48.524;9.044;2022-11-15T08:14:35;97354.34;;;11.54;57.85
13387;BME280;6763;48.524;9.044;2022-11-15T08:17:01;97359.47;;;11.55;57.78
13387;BME280;6763;48.524;9.044;2022-11-15T08:19:26;97351.75;;;11.54;57.78
13387;BME280;6763;48.524;9.044;2022-11-15T08:21:51;97357.81;;;11.53;57.64
13387;BME280;6763;48.524;9.044;2022-11-15T08:24:17;97350.03;;;11.53;57.24
13387;BME280;6763;48.524;9.044;2022-11-15T08:26:42;97354.38;;;11.52;57.34
13387;BME280;6763;48.524;9.044;2022-11-15T08:29:07;97356.06;;;11.53;57.24
13387;BME280;6763;48.524;9.044;2022-11-15T08:31:34;97346.50;;;11.55;57.51
13387;BME280;6763;48.524;9.044;2022-11-15T08:34:01;97343.03;;;11.56;57.61
13387;BME280;6763;48.524;9.044;2022-11-15T08:36:27;97337.84;;;11.56;57.40
13387;BME280;6763;48.524;9.044;2022-11-15T08:38:52;97335.97;;;11.61;57.60
13387;BME280;6763;48.524;9.044;2022-11-15T08:41:35;97328.84;;;11.69;57.39
13387;BME280;6763;48.524;9.044;2022-11-15T08:44:01;97329.41;;;11.79;58.15
13387;BME280;6763;48.524;9.044;2022-11-15T08:46:27;97334.19;;;11.93;58.00
13387;BME280;6763;48.524;9.044;2022-11-15T08:48:52;97322.53;;;12.06;57.76
13387;BME280;6763;48.524;9.044;2022-11-15T08:51:17;97328.09;;;12.20;57.48
13387;BME280;6763;48.524;9.044;2022-11-15T08:53:43;97319.00;;;12.33;57.19
13387;BME280;6763;48.524;9.044;2022-11-15T08:56:10;97316.75;;;12.49;57.27
13387;BME280;6763;48.524;9.044;2022-11-15T08:58:36;97322.19;;;12.67;56.82
13387;BME280;6763;48.524;9.044;2022-11-15T09:01:02;97310.41;;;12.82;56.31
13387;BME280;6763;48.524;9.044;2022-11-15T09:03:27;97309.16;;;12.92;55.56
13387;BME280;6763;48.524;9.044;2022-11-15T09:05:58;97304.44;;;13.03;55.39
13387;BME280;6763;48.524;9.044;2022-11-15T09:08:24;97304.84;;;13.17;56.00
13387;BME280;6763;48.524;9.044;2022-11-15T09:10:50;97307.63;;;13.36;56.13
13387;BME280;6763;48.524;9.044;2022-11-15T09:13:16;97304.38;;;13.52;56.11
13387;BME280;6763;48.524;9.044;2022-11-15T09:15:41;97301.44;;;13.61;54.95
13387;BME280;6763;48.524;9.044;2022-11-15T09:18:06;97299.31;;;13.71;55.37
13387;BME280;6763;48.524;9.044;2022-11-15T09:20:32;97301.38;;;13.85;55.68
13387;BME280;6763;48.524;9.044;2022-11-15T09:23:01;97304.22;;;14.00;54.76
13387;BME280;6763;48.524;9.044;2022-11-15T09:25:28;97297.00;;;14.07;54.34
13387;BME280;6763;48.524;9.044;2022-11-15T09:27:53;97296.13;;;14.08;54.11
13387;BME280;6763;48.524;9.044;2022-11-15T09:30:19;97290.84;;;14.09;54.30
13387;BME280;6763;48.524;9.044;2022-11-15T09:32:44;97295.06;;;14.12;53.95
13387;BME280;6763;48.524;9.044;2022-11-15T09:35:09;97307.00;;;14.17;54.02
13387;BME280;6763;48.524;9.044;2022-11-15T09:37:34;97304.03;;;14.26;54.05
13387;BME280;6763;48.524;9.044;2022-11-15T09:40:00;97300.22;;;14.35;53.58
13387;BME280;6763;48.524;9.044;2022-11-15T09:50:51;97287.19;;;14.96;52.51
13387;BME280;6763;48.524;9.044;2022-11-15T09:53:25;97284.28;;;15.22;52.41
13387;BME280;6763;48.524;9.044;2022-11-15T09:56:19;97276.91;;;15.50;52.17
13387;BME280;6763;48.524;9.044;2022-11-15T10:01:47;97267.72;;;16.14;51.54
13387;BME280;6763;48.524;9.044;2022-11-15T10:04:16;97268.34;;;16.37;50.92
13387;BME280;6763;48.524;9.044;2022-11-15T10:06:47;97264.91;;;16.53;50.64
13387;BME280;6763;48.524;9.044;2022-11-15T10:10:00;97263.53;;;16.63;49.97
13387;BME280;6763;48.524;9.044;2022-11-15T10:12:24;97255.44;;;16.68;49.78
13387;BME280;6763;48.524;9.044;2022-11-15T10:15:00;97245.00;;;16.68;49.44
13387;BME280;6763;48.524;9.044;2022-11-15T10:18:07;97247.47;;;16.71;49.26
13387;BME280;6763;48.524;9.044;2022-11-15T10:23:15;97245.44;;;16.93;49.02
13387;BME280;6763;48.524;9.044;2022-11-15T10:25:41;97241.16;;;17.08;49.18
13387;BME280;6763;48.524;9.044;2022-11-15T10:28:11;97237.72;;;17.23;48.62
13387;BME280;6763;48.524;9.044;2022-11-15T10:30:42;97234.53;;;17.33;48.21
13387;BME280;6763;48.524;9.044;2022-11-15T10:33:17;97233.78;;;17.47;48.26
13387;BME280;6763;48.524;9.044;2022-11-15T10:35:44;97225.28;;;17.59;48.04
13387;BME280;6763;48.524;9.044;2022-11-15T10:38:12;97225.53;;;17.70;48.17
13387;BME280;6763;48.524;9.044;2022-11-15T10:40:39;97226.81;;;17.79;46.76
13387;BME280;6763;48.524;9.044;2022-11-15T10:43:14;97223.84;;;17.69;46.25
13387;BME280;6763;48.524;9.044;2022-11-15T10:45:41;97219.97;;;17.61;46.73
13387;BME280;6763;48.524;9.044;2022-11-15T10:50:46;97224.00;;;17.51;47.40
13387;BME280;6763;48.524;9.044;2022-11-15T10:53:20;97219.28;;;17.57;47.11
13387;BME280;6763;48.524;9.044;2022-11-15T10:55:49;97219.97;;;17.61;47.23
13387;BME280;6763;48.524;9.044;2022-11-15T10:58:41;97213.91;;;17.60;47.12
13387;BME280;6763;48.524;9.044;2022-11-15T11:03:43;97215.97;;;17.69;46.65
13387;BME280;6763;48.524;9.044;2022-11-15T11:08:37;97208.38;;;17.80;46.27
13387;BME280;6763;48.524;9.044;2022-11-15T11:11:03;97202.81;;;17.86;46.25
13387;BME280;6763;48.524;9.044;2022-11-15T11:21:28;97183.19;;;18.23;45.47
13387;BME280;6763;48.524;9.044;2022-11-15T11:24:08;97179.19;;;18.32;45.40
13387;BME280;6763;48.524;9.044;2022-11-15T11:27:08;97176.88;;;18.41;44.95
13387;BME280;6763;48.524;9.044;2022-11-15T11:32:50;97179.47;;;18.57;44.75
13387;BME280;6763;48.524;9.044;2022-11-15T11:35:29;97172.16;;;18.76;44.39
13387;BME280;6763;48.524;9.044;2022-11-15T11:41:00;97160.78;;;19.04;43.82
13387;BME280;6763;48.524;9.044;2022-11-15T11:43:37;97159.19;;;19.15;43.55
13387;BME280;6763;48.524;9.044;2022-11-15T11:48:57;97152.72;;;19.21;43.18
13387;BME280;6763;48.524;9.044;2022-11-15T11:51:39;97142.88;;;19.25;43.13
13387;BME280;6763;48.524;9.044;2022-11-15T11:54:39;97140.16;;;19.26;42.96
13387;BME280;6763;48.524;9.044;2022-11-15T11:57:15;97137.16;;;19.32;42.91
13387;BME280;6763;48.524;9.044;2022-11-15T11:59:56;97133.31;;;19.38;42.85
13387;BME280;6763;48.524;9.044;2022-11-15T12:05:33;97125.34;;;19.39;42.59
13387;BME280;6763;48.524;9.044;2022-11-15T12:08:43;97118.66;;;19.34;42.44
13387;BME280;6763;48.524;9.044;2022-11-15T12:11:19;97119.91;;;19.28;42.30
13387;BME280;6763;48.524;9.044;2022-11-15T12:13:48;97113.38;;;19.21;42.43
13387;BME280;6763;48.524;9.044;2022-11-15T12:16:28;97115.53;;;19.14;42.38
13387;BME280;6763;48.524;9.044;2022-11-15T12:18:58;97112.91;;;19.14;42.21
13387;BME280;6763;48.524;9.044;2022-11-15T12:24:16;97111.47;;;19.23;42.17
13387;BME280;6763;48.524;9.044;2022-11-15T12:29:37;97109.69;;;19.38;41.69
13387;BME280;6763;48.524;9.044;2022-11-15T12:32:04;97110.88;;;19.46;41.83
13387;BME280;6763;48.524;9.044;2022-11-15T12:34:43;97108.59;;;19.54;41.65
13387;BME280;6763;48.524;9.044;2022-11-15T12:44:58;97080.75;;;19.78;41.29
13387;BME280;6763;48.524;9.044;2022-11-15T12:47:25;97087.38;;;19.84;41.26
13387;BME280;6763;48.524;9.044;2022-11-15T12:49:52;97084.63;;;19.86;41.08
13387;BME280;6763;48.524;9.044;2022-11-15T12:52:18;97080.22;;;19.86;41.28
13387;BME280;6763;48.524;9.044;2022-11-15T12:54:53;97080.22;;;19.86;41.20
13387;BME280;6763;48.524;9.044;2022-11-15T12:57:34;97082.00;;;19.86;40.67
13387;BME280;6763;48.524;9.044;2022-11-15T13:02:44;97082.41;;;19.79;41.31
13387;BME280;6763;48.524;9.044;2022-11-15T13:17:54;97055.28;;;19.66;41.60
13387;BME280;6763;48.524;9.044;2022-11-15T13:20:27;97047.50;;;19.65;41.58
13387;BME280;6763;48.524;9.044;2022-11-15T13:28:18;97035.44;;;19.36;42.14
13387;BME280;6763;48.524;9.044;2022-11-15T13:30:56;97027.63;;;19.22;42.56
13387;BME280;6763;48.524;9.044;2022-11-15T13:33:37;97025.78;;;19.09;42.81
13387;BME280;6763;48.524;9.044;2022-11-15T13:36:07;97018.06;;;18.94;43.00
13387;BME280;6763;48.524;9.044;2022-11-15T13:38:36;97016.34;;;18.80;43.25
13387;BME280;6763;48.524;9.044;2022-11-15T13:41:18;97017.94;;;18.69;43.91
13387;BME280;6763;48.524;9.044;2022-11-15T13:43:45;97002.81;;;18.60;44.16
13387;BME280;6763;48.524;9.044;2022-11-15T13:46:18;97003.84;;;18.57;44.49
13387;BME280;6763;48.524;9.044;2022-11-15T13:48:46;96984.72;;;18.55;44.65
13387;BME280;6763;48.524;9.044;2022-11-15T13:51:22;96986.53;;;18.54;44.70
13387;BME280;6763;48.524;9.044;2022-11-15T13:54:17;96983.25;;;18.51;44.94
13387;BME280;6763;48.524;9.044;2022-11-15T13:56:44;96977.28;;;18.49;44.97
13387;BME280;6763;48.524;9.044;2022-11-15T13:59:17;96973.88;;;18.47;45.18
13387;BME280;6763;48.524;9.044;2022-11-15T14:01:44;96973.69;;;18.50;45.25
13387;BME280;6763;48.524;9.044;2022-11-15T14:04:13;96968.81;;;18.58;45.17
13387;BME280;6763;48.524;9.044;2022-11-15T14:06:45;96964.78;;;18.67;45.08
13387;BME280;6763;48.524;9.044;2022-11-15T14:11:37;96959.59;;;18.79;44.94
13387;BME280;6763;48.524;9.044;2022-11-15T14:16:39;96955.63;;;18.86;45.00
13387;BME280;6763;48.524;9.044;2022-11-15T14:19:06;96944.19;;;18.87;45.02
13387;BME280;6763;48.524;9.044;2022-11-15T14:21:34;96942.63;;;18.85;45.19
13387;BME280;6763;48.524;9.044;2022-11-15T14:24:18;96946.78;;;18.75;45.65
13387;BME280;6763;48.524;9.044;2022-11-15T14:26:44;96945.69;;;18.65;45.73
13387;BME280;6763;48.524;9.044;2022-11-15T14:29:28;96940.28;;;18.53;45.60
13387;BME280;6763;48.524;9.044;2022-11-15T14:32:14;96944.97;;;18.48;46.16
13387;BME280;6763;48.524;9.044;2022-11-15T14:34:41;96941.03;;;18.41;46.35
13387;BME280;6763;48.524;9.044;2022-11-15T14:37:21;96940.13;;;18.28;46.24
13387;BME280;6763;48.524;9.044;2022-11-15T14:39:48;96934.25;;;18.11;46.40
13387;BME280;6763;48.524;9.044;2022-11-15T14:42:13;96941.28;;;17.96;47.29
13387;BME280;6763;48.524;9.044;2022-11-15T14:44:38;96941.28;;;17.82;47.90
13387;BME280;6763;48.524;9.044;2022-11-15T14:47:04;96928.00;;;17.71;48.42
13387;BME280;6763;48.524;9.044;2022-11-15T14:49:29;96923.50;;;17.59;48.75
13387;BME280;6763;48.524;9.044;2022-11-15T14:51:54;96916.28;;;17.48;49.21
13387;BME280;6763;48.524;9.044;2022-11-15T14:54:20;96909.13;;;17.36;49.49
13387;BME280;6763;48.524;9.044;2022-11-15T14:56:45;96918.47;;;17.26;49.96
13387;BME280;6763;48.524;9.044;2022-11-15T14:59:10;96912.00;;;17.17;50.13
13387;BME280;6763;48.524;9.044;2022-11-15T15:01:36;96911.69;;;17.08;50.30
13387;BME280;6763;48.524;9.044;2022-11-15T15:04:01;96912.25;;;16.99;50.60
13387;BME280;6763;48.524;9.044;2022-11-15T15:06:26;96913.69;;;16.89;50.94
13387;BME280;6763;48.524;9.044;2022-11-15T15:08:52;96909.69;;;16.83;51.12
13387;BME280;6763;48.524;9.044;2022-11-15T15:11:23;96908.31;;;16.76;51.45
13387;BME280;6763;48.524;9.044;2022-11-15T15:13:49;96906.06;;;16.70;51.49